sensor_id;sensor_type;location;lat;lon;timestamp;temperature;humidity
23147;DHT22;11742;53.532;-1.478;2023-11-21T00:00:15;13.60;99.90
23147;DHT22;11742;53.532;-1.478;2023-11-21T00:03:05;13.60;99.90
23147;DHT22;11742;53.532;-1.478;2023-11-21T00:06:03;13.60;99.90
23147;DHT22;11742;53.532;-1.478;2023-11-21T00:08:53;13.60;99.90
23147;DHT22;11742;53.532;-1.478;2023-11-21T00:11:59;13.60;99.90
23147;DHT22;11742;53.532;-1.478;2023-11-21T00:14:50;13.60;99.90
23147;DHT22;11742;53.532;-1.478;2023-11-21T00:17:38;13.60;99.90
23147;DHT22;11742;53.532;-1.478;2023-11-21T00:20:23;13.60;99.90
23147;DHT22;11742;53.532;-1.478;2023-11-21T00:23:09;13.60;99.90
23147;DHT22;11742;53.532;-1.478;2023-11-21T00:26:00;13.50;99.90
23147;DHT22;11742;53.532;-1.478;2023-11-21T00:28:47;13.50;99.90
23147;DHT22;11742;53.532;-1.478;2023-11-21T00:31:33;13.50;99.90
23147;DHT22;11742;53.532;-1.478;2023-11-21T00:34:24;13.50;99.90
23147;DHT22;11742;53.532;-1.478;2023-11-21T00:37:11;13.50;99.90
23147;DHT22;11742;53.532;-1.478;2023-11-21T00:39:58;13.50;99.90
23147;DHT22;11742;53.532;-1.478;2023-11-21T00:42:49;13.50;99.90
23147;DHT22;11742;53.532;-1.478;2023-11-21T00:45:36;13.50;99.90
23147;DHT22;11742;53.532;-1.478;2023-11-21T00:48:25;13.50;99.90
23147;DHT22;11742;53.532;-1.478;2023-11-21T00:51:20;13.50;99.90
23147;DHT22;11742;53.532;-1.478;2023-11-21T00:54:06;13.50;99.90
23147;DHT22;11742;53.532;-1.478;2023-11-21T00:56:53;13.40;99.90
23147;DHT22;11742;53.532;-1.478;2023-11-21T00:59:39;13.50;99.90
23147;DHT22;11742;53.532;-1.478;2023-11-21T01:02:24;13.50;99.90
23147;DHT22;11742;53.532;-1.478;2023-11-21T01:05:10;13.40;99.90
23147;DHT22;11742;53.532;-1.478;2023-11-21T01:08:02;13.40;99.90
23147;DHT22;11742;53.532;-1.478;2023-11-21T01:10:51;13.40;99.90
23147;DHT22;11742;53.532;-1.478;2023-11-21T01:13:42;13.40;99.90
23147;DHT22;11742;53.532;-1.478;2023-11-21T01:16:35;13.40;99.90
23147;DHT22;11742;53.532;-1.478;2023-11-21T01:19:20;13.40;99.90
23147;DHT22;11742;53.532;-1.478;2023-11-21T01:22:17;13.40;99.90
23147;DHT22;11742;53.532;-1.478;2023-11-21T01:25:16;13.40;99.90
23147;DHT22;11742;53.532;-1.478;2023-11-21T01:28:10;13.40;99.90
23147;DHT22;11742;53.532;-1.478;2023-11-21T01:31:00;13.30;99.90
23147;DHT22;11742;53.532;-1.478;2023-11-21T01:33:50;13.40;99.90
23147;DHT22;11742;53.532;-1.478;2023-11-21T01:36:37;13.30;99.90
23147;DHT22;11742;53.532;-1.478;2023-11-21T01:39:31;13.30;99.90
23147;DHT22;11742;53.532;-1.478;2023-11-21T01:42:27;13.30;99.90
23147;DHT22;11742;53.532;-1.478;2023-11-21T01:45:15;13.30;99.90
23147;DHT22;11742;53.532;-1.478;2023-11-21T01:48:14;13.30;99.90
23147;DHT22;11742;53.532;-1.478;2023-11-21T01:51:01;13.30;99.90
23147;DHT22;11742;53.532;-1.478;2023-11-21T01:53:54;13.30;99.90
23147;DHT22;11742;53.532;-1.478;2023-11-21T01:56:47;13.30;99.90
23147;DHT22;11742;53.532;-1.478;2023-11-21T01:59:57;13.20;99.90
23147;DHT22;11742;53.532;-1.478;2023-11-21T02:02:47;13.20;99.90
23147;DHT22;11742;53.532;-1.478;2023-11-21T02:05:37;13.20;99.90
23147;DHT22;11742;53.532;-1.478;2023-11-21T02:08:35;13.20;99.90
23147;DHT22;11742;53.532;-1.478;2023-11-21T02:11:31;13.20;99.90
23147;DHT22;11742;53.532;-1.478;2023-11-21T02:14:27;13.20;99.90
23147;DHT22;11742;53.532;-1.478;2023-11-21T02:17:26;13.20;99.90
23147;DHT22;11742;53.532;-1.478;2023-11-21T02:20:15;13.20;99.90
23147;DHT22;11742;53.532;-1.478;2023-11-21T02:23:05;13.20;99.90
23147;DHT22;11742;53.532;-1.478;2023-11-21T02:25:53;13.20;99.90
23147;DHT22;11742;53.532;-1.478;2023-11-21T02:28:44;13.10;99.90
23147;DHT22;11742;53.532;-1.478;2023-11-21T02:31:33;13.10;99.90
23147;DHT22;11742;53.532;-1.478;2023-11-21T02:34:25;13.10;99.90
23147;DHT22;11742;53.532;-1.478;2023-11-21T02:37:15;13.10;99.90
23147;DHT22;11742;53.532;-1.478;2023-11-21T02:40:07;13.10;99.90
23147;DHT22;11742;53.532;-1.478;2023-11-21T02:43:01;13.10;99.90
23147;DHT22;11742;53.532;-1.478;2023-11-21T02:45:51;13.10;99.90
23147;DHT22;11742;53.532;-1.478;2023-11-21T02:48:51;13.10;99.90
23147;DHT22;11742;53.532;-1.478;2023-11-21T02:51:39;13.10;99.90
23147;DHT22;11742;53.532;-1.478;2023-11-21T02:54:24;13.10;99.90
23147;DHT22;11742;53.532;-1.478;2023-11-21T02:57:12;13.10;99.90
23147;DHT22;11742;53.532;-1.478;2023-11-21T02:59:58;13.00;99.90
23147;DHT22;11742;53.532;-1.478;2023-11-21T03:03:09;13.10;99.90
23147;DHT22;11742;53.532;-1.478;2023-11-21T03:06:00;13.00;99.90
23147;DHT22;11742;53.532;-1.478;2023-11-21T03:08:46;13.00;99.90
23147;DHT22;11742;53.532;-1.478;2023-11-21T03:11:57;13.00;99.90
23147;DHT22;11742;53.532;-1.478;2023-11-21T03:14:46;13.00;99.90
23147;DHT22;11742;53.532;-1.478;2023-11-21T03:17:33;13.00;99.90
23147;DHT22;11742;53.532;-1.478;2023-11-21T03:20:21;13.00;99.90
23147;DHT22;11742;53.532;-1.478;2023-11-21T03:23:17;13.00;99.90
23147;DHT22;11742;53.532;-1.478;2023-11-21T03:26:14;13.00;99.90
23147;DHT22;11742;53.532;-1.478;2023-11-21T03:29:09;13.00;99.90
23147;DHT22;11742;53.532;-1.478;2023-11-21T03:32:00;13.00;99.90
23147;DHT22;11742;53.532;-1.478;2023-11-21T03:34:58;13.00;99.90
23147;DHT22;11742;53.532;-1.478;2023-11-21T03:37:44;13.00;99.90
23147;DHT22;11742;53.532;-1.478;2023-11-21T03:40:39;13.00;99.90
23147;DHT22;11742;53.532;-1.478;2023-11-21T03:43:24;13.00;99.90
23147;DHT22;11742;53.532;-1.478;2023-11-21T03:46:09;13.00;99.90
23147;DHT22;11742;53.532;-1.478;2023-11-21T03:48:57;12.90;99.90
23147;DHT22;11742;53.532;-1.478;2023-11-21T03:51:50;12.90;99.90
23147;DHT22;11742;53.532;-1.478;2023-11-21T03:54:37;12.90;99.90
23147;DHT22;11742;53.532;-1.478;2023-11-21T03:57:51;12.90;99.90
23147;DHT22;11742;53.532;-1.478;2023-11-21T04:00:40;12.90;99.90
23147;DHT22;11742;53.532;-1.478;2023-11-21T04:03:26;12.90;99.90
23147;DHT22;11742;53.532;-1.478;2023-11-21T04:06:19;12.90;99.90
23147;DHT22;11742;53.532;-1.478;2023-11-21T04:09:13;12.90;99.90
23147;DHT22;11742;53.532;-1.478;2023-11-21T04:12:02;12.90;99.90
23147;DHT22;11742;53.532;-1.478;2023-11-21T04:15:15;12.90;99.90
23147;DHT22;11742;53.532;-1.478;2023-11-21T04:18:09;12.90;99.90
23147;DHT22;11742;53.532;-1.478;2023-11-21T04:21:00;12.90;99.90
23147;DHT22;11742;53.532;-1.478;2023-11-21T04:24:14;12.90;99.90
23147;DHT22;11742;53.532;-1.478;2023-11-21T04:27:01;12.90;99.90
23147;DHT22;11742;53.532;-1.478;2023-11-21T04:29:50;12.90;99.90
23147;DHT22;11742;53.532;-1.478;2023-11-21T04:32:39;12.90;99.90
23147;DHT22;11742;53.532;-1.478;2023-11-21T04:35:26;12.90;99.90
23147;DHT22;11742;53.532;-1.478;2023-11-21T04:38:13;12.90;99.90
23147;DHT22;11742;53.532;-1.478;2023-11-21T04:40:57;12.90;99.90
23147;DHT22;11742;53.532;-1.478;2023-11-21T04:43:47;12.90;99.90
23147;DHT22;11742;53.532;-1.478;2023-11-21T04:46:34;12.90;99.90
23147;DHT22;11742;53.532;-1.478;2023-11-21T04:49:39;12.90;99.90
23147;DHT22;11742;53.532;-1.478;2023-11-21T04:52:28;12.90;99.90
23147;DHT22;11742;53.532;-1.478;2023-11-21T04:55:16;12.90;99.90
23147;DHT22;11742;53.532;-1.478;2023-11-21T04:58:06;12.90;99.90
23147;DHT22;11742;53.532;-1.478;2023-11-21T05:00:55;12.90;99.90
23147;DHT22;11742;53.532;-1.478;2023-11-21T05:03:50;12.90;99.90
23147;DHT22;11742;53.532;-1.478;2023-11-21T05:06:37;12.90;99.90
23147;DHT22;11742;53.532;-1.478;2023-11-21T05:09:30;12.90;99.90
23147;DHT22;11742;53.532;-1.478;2023-11-21T05:12:19;12.90;99.90
23147;DHT22;11742;53.532;-1.478;2023-11-21T05:15:15;12.90;99.90
23147;DHT22;11742;53.532;-1.478;2023-11-21T05:18:13;12.90;99.90
23147;DHT22;11742;53.532;-1.478;2023-11-21T05:21:00;12.90;99.90
23147;DHT22;11742;53.532;-1.478;2023-11-21T05:23:47;12.80;99.90
23147;DHT22;11742;53.532;-1.478;2023-11-21T05:26:38;12.80;99.90
23147;DHT22;11742;53.532;-1.478;2023-11-21T05:29:24;12.90;99.90
23147;DHT22;11742;53.532;-1.478;2023-11-21T05:32:10;12.80;99.90
23147;DHT22;11742;53.532;-1.478;2023-11-21T05:34:59;12.80;99.90
23147;DHT22;11742;53.532;-1.478;2023-11-21T05:37:48;12.80;99.90
23147;DHT22;11742;53.532;-1.478;2023-11-21T05:40:57;12.80;99.90
23147;DHT22;11742;53.532;-1.478;2023-11-21T05:43:48;12.80;99.90
23147;DHT22;11742;53.532;-1.478;2023-11-21T05:46:36;12.80;99.90
23147;DHT22;11742;53.532;-1.478;2023-11-21T05:49:24;12.80;99.90
23147;DHT22;11742;53.532;-1.478;2023-11-21T05:52:29;12.80;99.90
23147;DHT22;11742;53.532;-1.478;2023-11-21T05:55:17;12.80;99.90
23147;DHT22;11742;53.532;-1.478;2023-11-21T05:58:05;12.80;99.90
23147;DHT22;11742;53.532;-1.478;2023-11-21T06:00:51;12.80;99.90
23147;DHT22;11742;53.532;-1.478;2023-11-21T06:03:49;12.80;99.90
23147;DHT22;11742;53.532;-1.478;2023-11-21T06:06:35;12.80;99.90
23147;DHT22;11742;53.532;-1.478;2023-11-21T06:09:22;12.80;99.90
23147;DHT22;11742;53.532;-1.478;2023-11-21T06:12:10;12.80;99.90
23147;DHT22;11742;53.532;-1.478;2023-11-21T06:15:03;12.80;99.90
23147;DHT22;11742;53.532;-1.478;2023-11-21T06:17:55;12.80;99.90
23147;DHT22;11742;53.532;-1.478;2023-11-21T06:20:42;12.80;99.90
23147;DHT22;11742;53.532;-1.478;2023-11-21T06:23:26;12.80;99.90
23147;DHT22;11742;53.532;-1.478;2023-11-21T06:26:18;12.80;99.90
23147;DHT22;11742;53.532;-1.478;2023-11-21T06:29:18;12.80;99.90
23147;DHT22;11742;53.532;-1.478;2023-11-21T06:32:19;12.80;99.90
23147;DHT22;11742;53.532;-1.478;2023-11-21T06:35:10;12.80;99.90
23147;DHT22;11742;53.532;-1.478;2023-11-21T06:38:03;12.80;99.90
23147;DHT22;11742;53.532;-1.478;2023-11-21T06:40:52;12.80;99.90
23147;DHT22;11742;53.532;-1.478;2023-11-21T06:43:37;12.80;99.90
23147;DHT22;11742;53.532;-1.478;2023-11-21T06:46:26;12.80;99.90
23147;DHT22;11742;53.532;-1.478;2023-11-21T06:49:36;12.80;99.90
23147;DHT22;11742;53.532;-1.478;2023-11-21T06:52:27;12.80;99.90
23147;DHT22;11742;53.532;-1.478;2023-11-21T06:55:15;12.80;99.90
23147;DHT22;11742;53.532;-1.478;2023-11-21T06:58:03;12.80;99.90
23147;DHT22;11742;53.532;-1.478;2023-11-21T07:00:54;12.80;99.90
23147;DHT22;11742;53.532;-1.478;2023-11-21T07:03:42;12.80;99.90
23147;DHT22;11742;53.532;-1.478;2023-11-21T07:06:31;12.80;99.90
23147;DHT22;11742;53.532;-1.478;2023-11-21T07:09:44;12.80;99.90
23147;DHT22;11742;53.532;-1.478;2023-11-21T07:12:30;12.80;99.90
23147;DHT22;11742;53.532;-1.478;2023-11-21T07:15:29;12.80;99.90
23147;DHT22;11742;53.532;-1.478;2023-11-21T07:18:24;12.70;99.90
23147;DHT22;11742;53.532;-1.478;2023-11-21T07:21:10;12.70;99.90
23147;DHT22;11742;53.532;-1.478;2023-11-21T07:23:55;12.70;99.90
23147;DHT22;11742;53.532;-1.478;2023-11-21T07:26:43;12.70;99.90
23147;DHT22;11742;53.532;-1.478;2023-11-21T07:29:32;12.70;99.90
23147;DHT22;11742;53.532;-1.478;2023-11-21T07:32:20;12.70;99.90
23147;DHT22;11742;53.532;-1.478;2023-11-21T07:35:04;12.70;99.90
23147;DHT22;11742;53.532;-1.478;2023-11-21T07:37:54;12.70;99.90
23147;DHT22;11742;53.532;-1.478;2023-11-21T07:40:51;12.70;99.90
23147;DHT22;11742;53.532;-1.478;2023-11-21T07:43:37;12.70;99.90
23147;DHT22;11742;53.532;-1.478;2023-11-21T07:46:27;12.70;99.90
23147;DHT22;11742;53.532;-1.478;2023-11-21T07:49:17;12.70;99.90
23147;DHT22;11742;53.532;-1.478;2023-11-21T07:52:05;12.70;99.90
23147;DHT22;11742;53.532;-1.478;2023-11-21T07:55:04;12.70;99.90
23147;DHT22;11742;53.532;-1.478;2023-11-21T07:57:58;12.70;99.90
23147;DHT22;11742;53.532;-1.478;2023-11-21T08:00:52;12.70;99.90
23147;DHT22;11742;53.532;-1.478;2023-11-21T08:03:42;12.70;99.90
23147;DHT22;11742;53.532;-1.478;2023-11-21T08:06:38;12.70;99.90
23147;DHT22;11742;53.532;-1.478;2023-11-21T08:09:33;12.70;99.90
23147;DHT22;11742;53.532;-1.478;2023-11-21T08:12:18;12.70;99.90
23147;DHT22;11742;53.532;-1.478;2023-11-21T08:15:05;12.70;99.90
23147;DHT22;11742;53.532;-1.478;2023-11-21T08:17:49;12.60;99.90
23147;DHT22;11742;53.532;-1.478;2023-11-21T08:20:33;12.70;99.90
23147;DHT22;11742;53.532;-1.478;2023-11-21T08:23:21;12.70;99.90
23147;DHT22;11742;53.532;-1.478;2023-11-21T08:26:09;12.60;99.90
23147;DHT22;11742;53.532;-1.478;2023-11-21T08:28:53;12.60;99.90
23147;DHT22;11742;53.532;-1.478;2023-11-21T08:31:37;12.60;99.90
23147;DHT22;11742;53.532;-1.478;2023-11-21T08:34:22;12.60;99.90
23147;DHT22;11742;53.532;-1.478;2023-11-21T08:37:06;12.60;99.90
23147;DHT22;11742;53.532;-1.478;2023-11-21T08:39:50;12.60;99.90
23147;DHT22;11742;53.532;-1.478;2023-11-21T08:42:37;12.60;99.90
23147;DHT22;11742;53.532;-1.478;2023-11-21T08:45:22;12.60;99.90
23147;DHT22;11742;53.532;-1.478;2023-11-21T08:48:07;12.60;99.90
23147;DHT22;11742;53.532;-1.478;2023-11-21T08:50:51;12.60;99.90
23147;DHT22;11742;53.532;-1.478;2023-11-21T08:53:35;12.60;99.90
23147;DHT22;11742;53.532;-1.478;2023-11-21T08:56:19;12.60;99.90
23147;DHT22;11742;53.532;-1.478;2023-11-21T08:59:06;12.60;99.90
23147;DHT22;11742;53.532;-1.478;2023-11-21T09:01:54;12.60;99.90
23147;DHT22;11742;53.532;-1.478;2023-11-21T09:04:38;12.60;99.90
23147;DHT22;11742;53.532;-1.478;2023-11-21T09:07:23;12.60;99.90
23147;DHT22;11742;53.532;-1.478;2023-11-21T09:10:10;12.60;99.90
23147;DHT22;11742;53.532;-1.478;2023-11-21T09:13:01;12.60;99.90
23147;DHT22;11742;53.532;-1.478;2023-11-21T09:15:53;12.60;99.90
23147;DHT22;11742;53.532;-1.478;2023-11-21T09:18:43;12.60;99.90
23147;DHT22;11742;53.532;-1.478;2023-11-21T09:21:28;12.60;99.90
23147;DHT22;11742;53.532;-1.478;2023-11-21T09:24:13;12.50;99.90
23147;DHT22;11742;53.532;-1.478;2023-11-21T09:26:59;12.60;99.90
23147;DHT22;11742;53.532;-1.478;2023-11-21T09:29:47;12.50;99.90
23147;DHT22;11742;53.532;-1.478;2023-11-21T09:32:33;12.60;99.90
23147;DHT22;11742;53.532;-1.478;2023-11-21T09:35:21;12.60;99.90
23147;DHT22;11742;53.532;-1.478;2023-11-21T09:38:09;12.60;99.90
23147;DHT22;11742;53.532;-1.478;2023-11-21T09:40:55;12.60;99.90
23147;DHT22;11742;53.532;-1.478;2023-11-21T09:43:49;12.60;99.90
23147;DHT22;11742;53.532;-1.478;2023-11-21T09:46:48;12.60;99.90
23147;DHT22;11742;53.532;-1.478;2023-11-21T09:49:56;12.60;99.90
23147;DHT22;11742;53.532;-1.478;2023-11-21T09:52:57;12.60;99.90
23147;DHT22;11742;53.532;-1.478;2023-11-21T09:55:44;12.60;99.90
23147;DHT22;11742;53.532;-1.478;2023-11-21T09:58:34;12.60;99.90
23147;DHT22;11742;53.532;-1.478;2023-11-21T10:01:21;12.60;99.90
23147;DHT22;11742;53.532;-1.478;2023-11-21T10:04:11;12.60;99.90
23147;DHT22;11742;53.532;-1.478;2023-11-21T10:06:59;12.60;99.90
23147;DHT22;11742;53.532;-1.478;2023-11-21T10:09:47;12.60;99.90
23147;DHT22;11742;53.532;-1.478;2023-11-21T10:12:36;12.60;99.90
23147;DHT22;11742;53.532;-1.478;2023-11-21T10:15:29;12.60;99.90
23147;DHT22;11742;53.532;-1.478;2023-11-21T10:18:25;12.60;99.90
23147;DHT22;11742;53.532;-1.478;2023-11-21T10:21:16;12.60;99.90
23147;DHT22;11742;53.532;-1.478;2023-11-21T10:24:06;12.70;99.90
23147;DHT22;11742;53.532;-1.478;2023-11-21T10:26:51;12.70;99.90
23147;DHT22;11742;53.532;-1.478;2023-11-21T10:29:41;12.70;99.90
23147;DHT22;11742;53.532;-1.478;2023-11-21T10:32:32;12.70;99.90
23147;DHT22;11742;53.532;-1.478;2023-11-21T10:35:21;12.70;99.90
23147;DHT22;11742;53.532;-1.478;2023-11-21T10:38:17;12.80;99.90
23147;DHT22;11742;53.532;-1.478;2023-11-21T10:41:21;12.80;99.90
23147;DHT22;11742;53.532;-1.478;2023-11-21T10:44:12;12.80;99.90
23147;DHT22;11742;53.532;-1.478;2023-11-21T10:47:16;12.80;99.90
23147;DHT22;11742;53.532;-1.478;2023-11-21T10:50:05;12.90;99.90
23147;DHT22;11742;53.532;-1.478;2023-11-21T10:52:53;12.90;99.90
23147;DHT22;11742;53.532;-1.478;2023-11-21T10:55:47;13.00;99.90
23147;DHT22;11742;53.532;-1.478;2023-11-21T10:58:33;13.00;99.90
23147;DHT22;11742;53.532;-1.478;2023-11-21T11:01:22;13.00;99.90
23147;DHT22;11742;53.532;-1.478;2023-11-21T11:04:12;13.10;99.90
23147;DHT22;11742;53.532;-1.478;2023-11-21T11:07:10;13.10;99.90
23147;DHT22;11742;53.532;-1.478;2023-11-21T11:10:04;13.20;99.90
23147;DHT22;11742;53.532;-1.478;2023-11-21T11:12:59;13.20;99.90
23147;DHT22;11742;53.532;-1.478;2023-11-21T11:15:49;13.20;99.90
23147;DHT22;11742;53.532;-1.478;2023-11-21T11:18:40;13.30;99.90
23147;DHT22;11742;53.532;-1.478;2023-11-21T11:28:06;13.40;99.90
23147;DHT22;11742;53.532;-1.478;2023-11-21T11:32:04;13.40;99.90
23147;DHT22;11742;53.532;-1.478;2023-11-21T11:34:45;13.50;99.90
23147;DHT22;11742;53.532;-1.478;2023-11-21T11:37:31;13.50;99.90
23147;DHT22;11742;53.532;-1.478;2023-11-21T11:40:25;13.60;99.90
23147;DHT22;11742;53.532;-1.478;2023-11-21T11:43:31;13.60;99.90
23147;DHT22;11742;53.532;-1.478;2023-11-21T11:46:47;13.60;99.90
23147;DHT22;11742;53.532;-1.478;2023-11-21T11:49:36;13.70;99.90
23147;DHT22;11742;53.532;-1.478;2023-11-21T11:52:48;13.70;99.90
23147;DHT22;11742;53.532;-1.478;2023-11-21T11:55:34;13.70;99.90
23147;DHT22;11742;53.532;-1.478;2023-11-21T11:58:20;13.80;99.90
23147;DHT22;11742;53.532;-1.478;2023-11-21T12:01:08;13.80;99.90
23147;DHT22;11742;53.532;-1.478;2023-11-21T12:07:23;13.90;99.90
23147;DHT22;11742;53.532;-1.478;2023-11-21T12:10:15;13.90;99.90
23147;DHT22;11742;53.532;-1.478;2023-11-21T12:13:08;13.90;99.90
23147;DHT22;11742;53.532;-1.478;2023-11-21T12:15:54;13.90;99.90
23147;DHT22;11742;53.532;-1.478;2023-11-21T12:19:02;13.90;99.90
23147;DHT22;11742;53.532;-1.478;2023-11-21T12:21:48;13.90;99.90
23147;DHT22;11742;53.532;-1.478;2023-11-21T12:24:33;13.90;99.90
23147;DHT22;11742;53.532;-1.478;2023-11-21T12:27:25;14.00;99.90
23147;DHT22;11742;53.532;-1.478;2023-11-21T12:30:11;14.00;99.90
23147;DHT22;11742;53.532;-1.478;2023-11-21T12:33:07;14.00;99.90
23147;DHT22;11742;53.532;-1.478;2023-11-21T12:35:58;14.00;99.90
23147;DHT22;11742;53.532;-1.478;2023-11-21T12:38:45;14.00;99.90
23147;DHT22;11742;53.532;-1.478;2023-11-21T12:42:00;14.00;99.90
23147;DHT22;11742;53.532;-1.478;2023-11-21T12:44:48;14.00;99.90
23147;DHT22;11742;53.532;-1.478;2023-11-21T12:47:35;14.00;99.90
23147;DHT22;11742;53.532;-1.478;2023-11-21T12:50:26;14.00;99.90
23147;DHT22;11742;53.532;-1.478;2023-11-21T12:53:19;14.00;99.90
23147;DHT22;11742;53.532;-1.478;2023-11-21T12:56:38;14.00;99.90
23147;DHT22;11742;53.532;-1.478;2023-11-21T12:59:42;14.00;99.90
23147;DHT22;11742;53.532;-1.478;2023-11-21T13:02:30;14.00;99.90
23147;DHT22;11742;53.532;-1.478;2023-11-21T13:05:40;14.00;99.90
23147;DHT22;11742;53.532;-1.478;2023-11-21T13:08:31;14.00;99.90
23147;DHT22;11742;53.532;-1.478;2023-11-21T13:11:17;14.00;99.90
23147;DHT22;11742;53.532;-1.478;2023-11-21T13:14:07;14.10;99.90
23147;DHT22;11742;53.532;-1.478;2023-11-21T13:16:56;14.10;99.90
23147;DHT22;11742;53.532;-1.478;2023-11-21T13:19:44;14.10;99.90
23147;DHT22;11742;53.532;-1.478;2023-11-21T13:22:54;14.10;99.90
23147;DHT22;11742;53.532;-1.478;2023-11-21T13:25:45;14.10;99.90
23147;DHT22;11742;53.532;-1.478;2023-11-21T13:28:32;14.10;99.90
23147;DHT22;11742;53.532;-1.478;2023-11-21T13:31:20;14.10;99.90
23147;DHT22;11742;53.532;-1.478;2023-11-21T13:34:12;14.10;99.90
23147;DHT22;11742;53.532;-1.478;2023-11-21T13:37:01;14.10;99.90
23147;DHT22;11742;53.532;-1.478;2023-11-21T13:39:52;14.10;99.90
23147;DHT22;11742;53.532;-1.478;2023-11-21T13:42:42;14.10;99.90
23147;DHT22;11742;53.532;-1.478;2023-11-21T13:45:53;14.10;99.90
23147;DHT22;11742;53.532;-1.478;2023-11-21T13:49:02;14.10;99.90
23147;DHT22;11742;53.532;-1.478;2023-11-21T13:51:51;14.20;99.90
23147;DHT22;11742;53.532;-1.478;2023-11-21T13:54:50;14.10;99.90
23147;DHT22;11742;53.532;-1.478;2023-11-21T13:57:35;14.10;99.90
23147;DHT22;11742;53.532;-1.478;2023-11-21T14:00:24;14.10;99.90
23147;DHT22;11742;53.532;-1.478;2023-11-21T14:03:29;14.10;99.90
23147;DHT22;11742;53.532;-1.478;2023-11-21T14:06:24;14.10;99.90
23147;DHT22;11742;53.532;-1.478;2023-11-21T14:09:21;14.10;99.90
23147;DHT22;11742;53.532;-1.478;2023-11-21T14:12:15;14.10;99.90
23147;DHT22;11742;53.532;-1.478;2023-11-21T14:15:05;14.20;99.90
23147;DHT22;11742;53.532;-1.478;2023-11-21T14:17:53;14.20;99.90
23147;DHT22;11742;53.532;-1.478;2023-11-21T14:20:39;14.10;99.90
23147;DHT22;11742;53.532;-1.478;2023-11-21T14:23:26;14.10;99.90
23147;DHT22;11742;53.532;-1.478;2023-11-21T14:26:13;14.10;99.90
23147;DHT22;11742;53.532;-1.478;2023-11-21T14:29:00;14.10;99.90
23147;DHT22;11742;53.532;-1.478;2023-11-21T14:31:48;14.00;99.90
23147;DHT22;11742;53.532;-1.478;2023-11-21T14:34:35;14.00;99.90
23147;DHT22;11742;53.532;-1.478;2023-11-21T14:37:22;14.00;99.90
23147;DHT22;11742;53.532;-1.478;2023-11-21T14:40:19;14.00;99.90
23147;DHT22;11742;53.532;-1.478;2023-11-21T14:43:10;14.00;99.90
23147;DHT22;11742;53.532;-1.478;2023-11-21T14:46:20;14.00;99.90
23147;DHT22;11742;53.532;-1.478;2023-11-21T14:49:13;14.00;99.90
23147;DHT22;11742;53.532;-1.478;2023-11-21T14:52:05;14.00;99.90
23147;DHT22;11742;53.532;-1.478;2023-11-21T14:55:12;14.00;99.90
23147;DHT22;11742;53.532;-1.478;2023-11-21T14:58:17;13.80;99.90
23147;DHT22;11742;53.532;-1.478;2023-11-21T15:01:38;13.70;99.90
23147;DHT22;11742;53.532;-1.478;2023-11-21T15:04:49;13.50;99.90
23147;DHT22;11742;53.532;-1.478;2023-11-21T15:07:58;13.50;99.90
23147;DHT22;11742;53.532;-1.478;2023-11-21T15:11:05;13.50;99.90
23147;DHT22;11742;53.532;-1.478;2023-11-21T15:13:59;13.50;99.90
23147;DHT22;11742;53.532;-1.478;2023-11-21T15:16:54;13.50;99.90
23147;DHT22;11742;53.532;-1.478;2023-11-21T15:19:48;13.50;99.90
23147;DHT22;11742;53.532;-1.478;2023-11-21T15:22:35;13.50;99.90
23147;DHT22;11742;53.532;-1.478;2023-11-21T15:25:21;13.50;99.90
23147;DHT22;11742;53.532;-1.478;2023-11-21T15:28:06;13.50;99.90
23147;DHT22;11742;53.532;-1.478;2023-11-21T15:30:50;13.50;99.90
23147;DHT22;11742;53.532;-1.478;2023-11-21T15:33:35;13.50;99.90
23147;DHT22;11742;53.532;-1.478;2023-11-21T15:36:46;13.50;99.90
23147;DHT22;11742;53.532;-1.478;2023-11-21T15:39:38;13.50;99.90
23147;DHT22;11742;53.532;-1.478;2023-11-21T15:42:43;13.50;99.90
23147;DHT22;11742;53.532;-1.478;2023-11-21T15:45:34;13.50;99.90
23147;DHT22;11742;53.532;-1.478;2023-11-21T15:48:24;13.50;99.90
23147;DHT22;11742;53.532;-1.478;2023-11-21T15:51:15;13.50;99.90
23147;DHT22;11742;53.532;-1.478;2023-11-21T15:54:04;13.40;99.90
23147;DHT22;11742;53.532;-1.478;2023-11-21T15:56:57;13.40;99.90
23147;DHT22;11742;53.532;-1.478;2023-11-21T15:59:44;13.40;99.90
23147;DHT22;11742;53.532;-1.478;2023-11-21T16:02:34;13.40;99.90
23147;DHT22;11742;53.532;-1.478;2023-11-21T16:05:23;13.40;99.90
23147;DHT22;11742;53.532;-1.478;2023-11-21T16:08:11;13.40;99.90
23147;DHT22;11742;53.532;-1.478;2023-11-21T16:11:00;13.40;99.90
23147;DHT22;11742;53.532;-1.478;2023-11-21T16:13:44;13.40;99.90
23147;DHT22;11742;53.532;-1.478;2023-11-21T16:16:43;13.40;99.90
23147;DHT22;11742;53.532;-1.478;2023-11-21T16:19:39;13.30;99.90
23147;DHT22;11742;53.532;-1.478;2023-11-21T16:22:24;13.30;99.90
23147;DHT22;11742;53.532;-1.478;2023-11-21T16:25:14;13.30;99.90
23147;DHT22;11742;53.532;-1.478;2023-11-21T16:27:59;13.30;99.90
23147;DHT22;11742;53.532;-1.478;2023-11-21T16:30:49;13.30;99.90
23147;DHT22;11742;53.532;-1.478;2023-11-21T16:33:44;13.20;99.90
23147;DHT22;11742;53.532;-1.478;2023-11-21T16:36:31;13.20;99.90
23147;DHT22;11742;53.532;-1.478;2023-11-21T16:39:16;13.20;99.90
23147;DHT22;11742;53.532;-1.478;2023-11-21T16:42:06;13.20;99.90
23147;DHT22;11742;53.532;-1.478;2023-11-21T16:44:52;13.20;99.90
23147;DHT22;11742;53.532;-1.478;2023-11-21T16:47:41;13.20;99.90
23147;DHT22;11742;53.532;-1.478;2023-11-21T16:50:26;13.10;99.90
23147;DHT22;11742;53.532;-1.478;2023-11-21T16:53:10;13.10;99.90
23147;DHT22;11742;53.532;-1.478;2023-11-21T16:55:54;13.10;99.90
23147;DHT22;11742;53.532;-1.478;2023-11-21T16:58:38;13.10;99.90
23147;DHT22;11742;53.532;-1.478;2023-11-21T17:01:23;13.10;99.90
23147;DHT22;11742;53.532;-1.478;2023-11-21T17:04:09;13.10;99.90
23147;DHT22;11742;53.532;-1.478;2023-11-21T17:06:55;13.00;99.90
23147;DHT22;11742;53.532;-1.478;2023-11-21T17:09:40;13.00;99.90
23147;DHT22;11742;53.532;-1.478;2023-11-21T17:12:25;13.00;99.90
23147;DHT22;11742;53.532;-1.478;2023-11-21T17:15:11;13.00;99.90
23147;DHT22;11742;53.532;-1.478;2023-11-21T17:17:57;13.00;99.90
23147;DHT22;11742;53.532;-1.478;2023-11-21T17:20:45;13.00;99.90
23147;DHT22;11742;53.532;-1.478;2023-11-21T17:23:34;12.90;99.90
23147;DHT22;11742;53.532;-1.478;2023-11-21T17:26:21;13.00;99.90
23147;DHT22;11742;53.532;-1.478;2023-11-21T17:29:08;12.90;99.90
23147;DHT22;11742;53.532;-1.478;2023-11-21T17:31:54;12.90;99.90
23147;DHT22;11742;53.532;-1.478;2023-11-21T17:34:40;12.90;99.90
23147;DHT22;11742;53.532;-1.478;2023-11-21T17:37:28;12.90;99.90
23147;DHT22;11742;53.532;-1.478;2023-11-21T17:40:21;12.80;99.90
23147;DHT22;11742;53.532;-1.478;2023-11-21T17:43:13;12.80;99.90
23147;DHT22;11742;53.532;-1.478;2023-11-21T17:46:07;12.80;99.90
23147;DHT22;11742;53.532;-1.478;2023-11-21T17:48:58;12.80;99.90
23147;DHT22;11742;53.532;-1.478;2023-11-21T17:51:44;12.80;99.90
23147;DHT22;11742;53.532;-1.478;2023-11-21T17:54:30;12.70;99.90